sensor_id;sensor_type;location;lat;lon;timestamp;P1;durP1;ratioP1;P2;durP2;ratioP2
1328;SDS011;658;48.820;9.354;2022-09-25T00:00:50;3.40;;;3.20;;
1328;SDS011;658;48.820;9.354;2022-09-25T00:04:54;3.43;;;3.23;;
1328;SDS011;658;48.820;9.354;2022-09-25T00:08:55;3.90;;;3.60;;
1328;SDS011;658;48.820;9.354;2022-09-25T00:12:56;3.33;;;3.13;;
1328;SDS011;658;48.820;9.354;2022-09-25T00:16:57;4.10;;;3.80;;
1328;SDS011;658;48.820;9.354;2022-09-25T00:21:00;4.10;;;3.80;;
1328;SDS011;658;48.820;9.354;2022-09-25T00:25:01;4.43;;;4.13;;
1328;SDS011;658;48.820;9.354;2022-09-25T00:29:03;4.37;;;4.07;;
1328;SDS011;658;48.820;9.354;2022-09-25T00:33:04;3.73;;;3.43;;
1328;SDS011;658;48.820;9.354;2022-09-25T00:37:05;4.63;;;4.00;;
1328;SDS011;658;48.820;9.354;2022-09-25T00:41:06;4.50;;;4.20;;
1328;SDS011;658;48.820;9.354;2022-09-25T00:45:19;4.17;;;3.87;;
1328;SDS011;658;48.820;9.354;2022-09-25T00:49:23;4.23;;;3.90;;
1328;SDS011;658;48.820;9.354;2022-09-25T00:53:29;3.90;;;3.60;;
1328;SDS011;658;48.820;9.354;2022-09-25T00:57:33;3.90;;;3.60;;
1328;SDS011;658;48.820;9.354;2022-09-25T01:01:36;4.30;;;4.00;;
1328;SDS011;658;48.820;9.354;2022-09-25T01:05:37;3.60;;;3.40;;
1328;SDS011;658;48.820;9.354;2022-09-25T01:09:41;3.73;;;3.50;;
1328;SDS011;658;48.820;9.354;2022-09-25T01:13:42;4.30;;;4.00;;
1328;SDS011;658;48.820;9.354;2022-09-25T01:26:52;4.27;;;3.97;;
1328;SDS011;658;48.820;9.354;2022-09-25T01:31:17;4.20;;;3.90;;
1328;SDS011;658;48.820;9.354;2022-09-25T01:35:32;4.60;;;4.30;;
1328;SDS011;658;48.820;9.354;2022-09-25T01:39:44;4.30;;;4.00;;
1328;SDS011;658;48.820;9.354;2022-09-25T01:48:28;4.57;;;4.27;;
1328;SDS011;658;48.820;9.354;2022-09-25T01:52:39;4.30;;;4.00;;
1328;SDS011;658;48.820;9.354;2022-09-25T01:56:49;3.93;;;3.63;;
1328;SDS011;658;48.820;9.354;2022-09-25T02:00:57;4.23;;;3.93;;
1328;SDS011;658;48.820;9.354;2022-09-25T02:05:13;4.50;;;4.13;;
1328;SDS011;658;48.820;9.354;2022-09-25T02:09:31;4.20;;;3.90;;
1328;SDS011;658;48.820;9.354;2022-09-25T02:13:56;4.67;;;4.27;;
1328;SDS011;658;48.820;9.354;2022-09-25T02:18:03;3.77;;;3.57;;
1328;SDS011;658;48.820;9.354;2022-09-25T02:22:27;3.87;;;3.57;;
1328;SDS011;658;48.820;9.354;2022-09-25T02:26:34;4.77;;;4.37;;
1328;SDS011;658;48.820;9.354;2022-09-25T02:30:35;4.50;;;4.13;;
1328;SDS011;658;48.820;9.354;2022-09-25T02:34:35;3.33;;;3.13;;
1328;SDS011;658;48.820;9.354;2022-09-25T02:38:36;4.07;;;3.77;;
1328;SDS011;658;48.820;9.354;2022-09-25T02:42:48;4.20;;;3.90;;
1328;SDS011;658;48.820;9.354;2022-09-25T02:55:57;3.83;;;3.63;;
1328;SDS011;658;48.820;9.354;2022-09-25T03:00:05;3.97;;;3.67;;
1328;SDS011;658;48.820;9.354;2022-09-25T03:04:07;4.60;;;4.20;;
1328;SDS011;658;48.820;9.354;2022-09-25T03:08:09;4.10;;;3.80;;
1328;SDS011;658;48.820;9.354;2022-09-25T03:12:28;4.50;;;4.10;;
1328;SDS011;658;48.820;9.354;2022-09-25T03:16:48;4.37;;;4.07;;
1328;SDS011;658;48.820;9.354;2022-09-25T03:20:57;4.17;;;3.87;;
1328;SDS011;658;48.820;9.354;2022-09-25T03:24:58;3.87;;;3.67;;
1328;SDS011;658;48.820;9.354;2022-09-25T03:28:58;4.10;;;3.70;;
1328;SDS011;658;48.820;9.354;2022-09-25T03:33:01;4.20;;;3.90;;
1328;SDS011;658;48.820;9.354;2022-09-25T03:37:01;4.13;;;3.83;;
1328;SDS011;658;48.820;9.354;2022-09-25T03:41:02;4.13;;;3.83;;
1328;SDS011;658;48.820;9.354;2022-09-25T03:45:07;4.40;;;3.80;;
1328;SDS011;658;48.820;9.354;2022-09-25T03:49:09;4.63;;;4.33;;
1328;SDS011;658;48.820;9.354;2022-09-25T03:53:09;4.10;;;3.90;;
1328;SDS011;658;48.820;9.354;2022-09-25T03:57:10;4.03;;;3.73;;
1328;SDS011;658;48.820;9.354;2022-09-25T04:01:12;3.73;;;3.43;;
1328;SDS011;658;48.820;9.354;2022-09-25T04:05:13;4.10;;;3.80;;
1328;SDS011;658;48.820;9.354;2022-09-25T04:09:14;4.40;;;4.10;;
1328;SDS011;658;48.820;9.354;2022-09-25T04:13:15;3.50;;;3.30;;
1328;SDS011;658;48.820;9.354;2022-09-25T04:17:18;4.10;;;3.80;;
1328;SDS011;658;48.820;9.354;2022-09-25T04:21:19;3.53;;;3.33;;
1328;SDS011;658;48.820;9.354;2022-09-25T04:25:19;3.93;;;3.73;;
1328;SDS011;658;48.820;9.354;2022-09-25T04:29:20;4.07;;;3.77;;
1328;SDS011;658;48.820;9.354;2022-09-25T04:33:22;3.73;;;3.53;;
1328;SDS011;658;48.820;9.354;2022-09-25T04:37:41;3.50;;;3.30;;
1328;SDS011;658;48.820;9.354;2022-09-25T04:41:41;4.00;;;3.70;;
1328;SDS011;658;48.820;9.354;2022-09-25T04:45:42;3.77;;;3.50;;
1328;SDS011;658;48.820;9.354;2022-09-25T04:49:43;3.43;;;3.23;;
1328;SDS011;658;48.820;9.354;2022-09-25T04:53:43;3.73;;;3.43;;
1328;SDS011;658;48.820;9.354;2022-09-25T04:57:44;3.77;;;3.57;;
1328;SDS011;658;48.820;9.354;2022-09-25T05:01:51;3.90;;;3.70;;
1328;SDS011;658;48.820;9.354;2022-09-25T05:05:52;3.67;;;3.47;;
1328;SDS011;658;48.820;9.354;2022-09-25T05:09:53;3.63;;;3.40;;
1328;SDS011;658;48.820;9.354;2022-09-25T05:13:53;3.70;;;3.50;;
1328;SDS011;658;48.820;9.354;2022-09-25T05:18:04;3.50;;;3.30;;
1328;SDS011;658;48.820;9.354;2022-09-25T05:22:15;3.47;;;3.27;;
1328;SDS011;658;48.820;9.354;2022-09-25T05:26:16;3.90;;;3.60;;
1328;SDS011;658;48.820;9.354;2022-09-25T05:30:17;3.90;;;3.60;;
1328;SDS011;658;48.820;9.354;2022-09-25T05:34:17;3.67;;;3.40;;
1328;SDS011;658;48.820;9.354;2022-09-25T05:38:18;3.40;;;3.20;;
1328;SDS011;658;48.820;9.354;2022-09-25T05:42:18;3.60;;;3.40;;
1328;SDS011;658;48.820;9.354;2022-09-25T05:46:19;3.63;;;3.40;;
1328;SDS011;658;48.820;9.354;2022-09-25T05:50:20;3.43;;;3.23;;
1328;SDS011;658;48.820;9.354;2022-09-25T05:54:20;3.73;;;3.53;;
1328;SDS011;658;48.820;9.354;2022-09-25T05:58:21;3.47;;;3.27;;
1328;SDS011;658;48.820;9.354;2022-09-25T06:02:21;3.30;;;3.10;;
1328;SDS011;658;48.820;9.354;2022-09-25T06:06:22;3.80;;;3.50;;
1328;SDS011;658;48.820;9.354;2022-09-25T06:10:22;3.60;;;3.40;;
1328;SDS011;658;48.820;9.354;2022-09-25T06:14:26;3.37;;;3.17;;
1328;SDS011;658;48.820;9.354;2022-09-25T06:18:26;3.03;;;2.83;;
1328;SDS011;658;48.820;9.354;2022-09-25T06:22:27;3.87;;;3.57;;
1328;SDS011;658;48.820;9.354;2022-09-25T06:26:28;3.57;;;3.37;;
1328;SDS011;658;48.820;9.354;2022-09-25T06:30:29;3.57;;;3.37;;
1328;SDS011;658;48.820;9.354;2022-09-25T06:34:36;3.20;;;3.00;;
1328;SDS011;658;48.820;9.354;2022-09-25T06:38:36;3.17;;;2.97;;
1328;SDS011;658;48.820;9.354;2022-09-25T06:42:37;3.13;;;2.93;;
1328;SDS011;658;48.820;9.354;2022-09-25T06:46:37;3.10;;;2.90;;
1328;SDS011;658;48.820;9.354;2022-09-25T06:50:42;3.20;;;3.00;;
1328;SDS011;658;48.820;9.354;2022-09-25T06:54:45;3.20;;;3.00;;
1328;SDS011;658;48.820;9.354;2022-09-25T06:58:46;3.30;;;3.10;;
1328;SDS011;658;48.820;9.354;2022-09-25T07:02:47;3.30;;;3.10;;
1328;SDS011;658;48.820;9.354;2022-09-25T07:07:06;2.80;;;2.67;;
1328;SDS011;658;48.820;9.354;2022-09-25T07:11:09;3.03;;;2.83;;
1328;SDS011;658;48.820;9.354;2022-09-25T07:15:12;2.97;;;2.77;;
1328;SDS011;658;48.820;9.354;2022-09-25T07:19:14;3.30;;;3.10;;
1328;SDS011;658;48.820;9.354;2022-09-25T07:23:15;3.67;;;3.37;;
1328;SDS011;658;48.820;9.354;2022-09-25T07:27:17;2.50;;;2.40;;
1328;SDS011;658;48.820;9.354;2022-09-25T07:31:19;3.40;;;3.13;;
1328;SDS011;658;48.820;9.354;2022-09-25T07:35:24;3.43;;;3.13;;
1328;SDS011;658;48.820;9.354;2022-09-25T07:39:26;3.40;;;3.10;;
1328;SDS011;658;48.820;9.354;2022-09-25T07:43:26;2.50;;;2.40;;
1328;SDS011;658;48.820;9.354;2022-09-25T07:47:27;2.97;;;2.77;;
1328;SDS011;658;48.820;9.354;2022-09-25T07:51:27;2.50;;;2.40;;
1328;SDS011;658;48.820;9.354;2022-09-25T07:55:29;3.10;;;2.90;;
1328;SDS011;658;48.820;9.354;2022-09-25T07:59:29;2.93;;;2.73;;
1328;SDS011;658;48.820;9.354;2022-09-25T08:03:30;2.50;;;2.40;;
1328;SDS011;658;48.820;9.354;2022-09-25T08:07:31;2.67;;;2.53;;
1328;SDS011;658;48.820;9.354;2022-09-25T08:11:32;2.80;;;2.60;;
1328;SDS011;658;48.820;9.354;2022-09-25T08:15:33;2.93;;;2.70;;
1328;SDS011;658;48.820;9.354;2022-09-25T08:19:34;2.77;;;2.60;;
1328;SDS011;658;48.820;9.354;2022-09-25T08:23:34;3.23;;;3.03;;
1328;SDS011;658;48.820;9.354;2022-09-25T08:27:35;2.47;;;2.33;;
1328;SDS011;658;48.820;9.354;2022-09-25T08:31:42;2.40;;;2.30;;
1328;SDS011;658;48.820;9.354;2022-09-25T08:35:42;2.40;;;2.30;;
1328;SDS011;658;48.820;9.354;2022-09-25T08:39:43;3.10;;;2.90;;
1328;SDS011;658;48.820;9.354;2022-09-25T08:47:54;2.40;;;2.20;;
1328;SDS011;658;48.820;9.354;2022-09-25T08:52:16;2.50;;;2.30;;
1328;SDS011;658;48.820;9.354;2022-09-25T08:56:19;2.20;;;2.10;;
1328;SDS011;658;48.820;9.354;2022-09-25T09:00:21;3.00;;;2.70;;
1328;SDS011;658;48.820;9.354;2022-09-25T09:08:26;2.50;;;2.40;;
1328;SDS011;658;48.820;9.354;2022-09-25T09:12:47;2.43;;;2.30;;
1328;SDS011;658;48.820;9.354;2022-09-25T09:21:06;2.60;;;2.40;;
1328;SDS011;658;48.820;9.354;2022-09-25T09:25:25;2.27;;;2.17;;
1328;SDS011;658;48.820;9.354;2022-09-25T09:42:23;2.60;;;2.50;;
1328;SDS011;658;48.820;9.354;2022-09-25T09:46:36;2.60;;;2.40;;
1328;SDS011;658;48.820;9.354;2022-09-25T09:51:00;2.70;;;2.50;;
1328;SDS011;658;48.820;9.354;2022-09-25T09:59:41;2.90;;;2.70;;
1328;SDS011;658;48.820;9.354;2022-09-25T10:03:46;2.00;;;1.90;;
1328;SDS011;658;48.820;9.354;2022-09-25T10:07:52;2.50;;;2.30;;
1328;SDS011;658;48.820;9.354;2022-09-25T10:11:56;2.37;;;2.17;;
1328;SDS011;658;48.820;9.354;2022-09-25T10:16:14;2.40;;;2.30;;
1328;SDS011;658;48.820;9.354;2022-09-25T10:20:18;2.20;;;2.00;;
1328;SDS011;658;48.820;9.354;2022-09-25T10:28:53;2.77;;;2.50;;
1328;SDS011;658;48.820;9.354;2022-09-25T10:33:10;2.90;;;2.70;;
1328;SDS011;658;48.820;9.354;2022-09-25T10:37:18;2.87;;;2.67;;
1328;SDS011;658;48.820;9.354;2022-09-25T10:41:20;3.50;;;2.70;;
1328;SDS011;658;48.820;9.354;2022-09-25T10:49:23;4.13;;;2.73;;
1328;SDS011;658;48.820;9.354;2022-09-25T10:53:44;2.60;;;2.50;;
1328;SDS011;658;48.820;9.354;2022-09-25T10:58:11;3.30;;;3.10;;
1328;SDS011;658;48.820;9.354;2022-09-25T11:02:57;2.93;;;2.73;;
1328;SDS011;658;48.820;9.354;2022-09-25T11:06:43;3.23;;;3.03;;
1328;SDS011;658;48.820;9.354;2022-09-25T11:15:01;3.43;;;2.90;;
1328;SDS011;658;48.820;9.354;2022-09-25T11:19:07;2.87;;;2.67;;
1328;SDS011;658;48.820;9.354;2022-09-25T11:23:28;2.70;;;2.50;;
1328;SDS011;658;48.820;9.354;2022-09-25T11:27:40;2.70;;;2.50;;
1328;SDS011;658;48.820;9.354;2022-09-25T11:31:55;2.93;;;2.73;;
1328;SDS011;658;48.820;9.354;2022-09-25T11:36:34;2.93;;;2.73;;
1328;SDS011;658;48.820;9.354;2022-09-25T11:40:59;2.93;;;2.73;;
1328;SDS011;658;48.820;9.354;2022-09-25T11:45:14;3.40;;;3.20;;
1328;SDS011;658;48.820;9.354;2022-09-25T11:49:29;3.30;;;3.00;;
1328;SDS011;658;48.820;9.354;2022-09-25T11:53:53;3.30;;;2.83;;
1328;SDS011;658;48.820;9.354;2022-09-25T12:02:53;2.97;;;2.67;;
1328;SDS011;658;48.820;9.354;2022-09-25T12:07:33;3.50;;;3.23;;
1328;SDS011;658;48.820;9.354;2022-09-25T12:11:46;3.10;;;2.90;;
1328;SDS011;658;48.820;9.354;2022-09-25T12:16:05;3.20;;;3.00;;
1328;SDS011;658;48.820;9.354;2022-09-25T12:37:44;3.57;;;3.30;;
1328;SDS011;658;48.820;9.354;2022-09-25T12:41:53;4.33;;;3.93;;
1328;SDS011;658;48.820;9.354;2022-09-25T12:46:07;3.33;;;3.13;;
1328;SDS011;658;48.820;9.354;2022-09-25T12:50:15;4.03;;;3.73;;
1328;SDS011;658;48.820;9.354;2022-09-25T12:54:27;3.80;;;3.50;;
1328;SDS011;658;48.820;9.354;2022-09-25T13:12:03;6.93;;;4.37;;
1328;SDS011;658;48.820;9.354;2022-09-25T13:16:27;4.03;;;3.73;;
1328;SDS011;658;48.820;9.354;2022-09-25T13:24:37;3.87;;;3.57;;
1328;SDS011;658;48.820;9.354;2022-09-25T13:28:55;4.40;;;4.00;;
1328;SDS011;658;48.820;9.354;2022-09-25T13:32:58;4.50;;;4.20;;
1328;SDS011;658;48.820;9.354;2022-09-25T13:37:02;4.60;;;4.20;;
1328;SDS011;658;48.820;9.354;2022-09-25T13:41:11;4.00;;;3.60;;
1328;SDS011;658;48.820;9.354;2022-09-25T13:45:29;5.37;;;4.60;;
1328;SDS011;658;48.820;9.354;2022-09-25T13:49:32;8.20;;;7.60;;
1328;SDS011;658;48.820;9.354;2022-09-25T14:06:40;5.70;;;5.30;;
1328;SDS011;658;48.820;9.354;2022-09-25T14:10:42;5.97;;;5.57;;
1328;SDS011;658;48.820;9.354;2022-09-25T14:14:50;5.50;;;5.10;;
1328;SDS011;658;48.820;9.354;2022-09-25T14:18:58;5.40;;;5.00;;
1328;SDS011;658;48.820;9.354;2022-09-25T14:23:03;5.77;;;5.37;;
1328;SDS011;658;48.820;9.354;2022-09-25T14:27:17;5.50;;;5.10;;
1328;SDS011;658;48.820;9.354;2022-09-25T14:44:16;5.27;;;4.77;;
1328;SDS011;658;48.820;9.354;2022-09-25T14:48:29;5.20;;;4.70;;
1328;SDS011;658;48.820;9.354;2022-09-25T14:52:36;4.53;;;4.23;;
1328;SDS011;658;48.820;9.354;2022-09-25T14:56:36;5.23;;;4.83;;
1328;SDS011;658;48.820;9.354;2022-09-25T15:00:42;4.83;;;4.43;;
1328;SDS011;658;48.820;9.354;2022-09-25T15:04:45;4.53;;;4.23;;
1328;SDS011;658;48.820;9.354;2022-09-25T15:08:45;4.97;;;4.67;;
1328;SDS011;658;48.820;9.354;2022-09-25T15:12:46;4.80;;;4.40;;
1328;SDS011;658;48.820;9.354;2022-09-25T15:16:47;4.60;;;4.30;;
1328;SDS011;658;48.820;9.354;2022-09-25T15:21:07;4.53;;;4.13;;
1328;SDS011;658;48.820;9.354;2022-09-25T15:25:19;4.43;;;3.97;;
1328;SDS011;658;48.820;9.354;2022-09-25T15:29:30;4.40;;;4.00;;
1328;SDS011;658;48.820;9.354;2022-09-25T15:33:35;4.23;;;3.93;;
1328;SDS011;658;48.820;9.354;2022-09-25T15:37:37;4.13;;;3.93;;
1328;SDS011;658;48.820;9.354;2022-09-25T15:41:38;4.20;;;3.90;;
1328;SDS011;658;48.820;9.354;2022-09-25T15:49:56;3.40;;;3.10;;
1328;SDS011;658;48.820;9.354;2022-09-25T15:53:57;3.80;;;3.50;;
1328;SDS011;658;48.820;9.354;2022-09-25T15:58:27;3.90;;;3.50;;
1328;SDS011;658;48.820;9.354;2022-09-25T16:02:28;3.80;;;3.53;;
1328;SDS011;658;48.820;9.354;2022-09-25T16:06:48;3.67;;;3.47;;
1328;SDS011;658;48.820;9.354;2022-09-25T16:11:32;4.07;;;3.80;;
1328;SDS011;658;48.820;9.354;2022-09-25T16:23:29;3.77;;;3.47;;
1328;SDS011;658;48.820;9.354;2022-09-25T16:27:31;3.80;;;3.50;;
1328;SDS011;658;48.820;9.354;2022-09-25T16:31:33;3.00;;;2.80;;
1328;SDS011;658;48.820;9.354;2022-09-25T16:35:36;3.10;;;2.90;;
1328;SDS011;658;48.820;9.354;2022-09-25T16:39:39;3.70;;;3.50;;
1328;SDS011;658;48.820;9.354;2022-09-25T16:43:40;3.00;;;2.80;;
1328;SDS011;658;48.820;9.354;2022-09-25T16:47:40;3.67;;;3.47;;
1328;SDS011;658;48.820;9.354;2022-09-25T16:51:42;2.90;;;2.70;;
1328;SDS011;658;48.820;9.354;2022-09-25T16:55:46;3.17;;;2.97;;
1328;SDS011;658;48.820;9.354;2022-09-25T16:59:52;3.10;;;2.90;;
1328;SDS011;658;48.820;9.354;2022-09-25T17:03:53;4.40;;;2.90;;
1328;SDS011;658;48.820;9.354;2022-09-25T17:07:59;3.30;;;3.10;;
1328;SDS011;658;48.820;9.354;2022-09-25T17:12:08;3.33;;;3.03;;
1328;SDS011;658;48.820;9.354;2022-09-25T17:16:14;2.77;;;2.67;;
1328;SDS011;658;48.820;9.354;2022-09-25T17:20:15;3.80;;;3.20;;
1328;SDS011;658;48.820;9.354;2022-09-25T17:24:16;2.80;;;2.67;;
1328;SDS011;658;48.820;9.354;2022-09-25T17:28:19;3.23;;;3.03;;
1328;SDS011;658;48.820;9.354;2022-09-25T17:32:19;4.37;;;2.90;;
1328;SDS011;658;48.820;9.354;2022-09-25T17:36:20;3.00;;;2.80;;
1328;SDS011;658;48.820;9.354;2022-09-25T17:40:21;3.13;;;2.93;;
1328;SDS011;658;48.820;9.354;2022-09-25T17:44:21;2.70;;;2.53;;
1328;SDS011;658;48.820;9.354;2022-09-25T17:48:23;2.87;;;2.73;;
1328;SDS011;658;48.820;9.354;2022-09-25T17:52:26;3.00;;;2.70;;
1328;SDS011;658;48.820;9.354;2022-09-25T17:56:27;3.20;;;3.00;;
1328;SDS011;658;48.820;9.354;2022-09-25T18:00:31;2.73;;;2.60;;
1328;SDS011;658;48.820;9.354;2022-09-25T18:04:31;3.10;;;2.90;;
1328;SDS011;658;48.820;9.354;2022-09-25T18:08:32;2.60;;;2.50;;
1328;SDS011;658;48.820;9.354;2022-09-25T18:12:32;2.53;;;2.40;;
1328;SDS011;658;48.820;9.354;2022-09-25T18:16:33;2.90;;;2.70;;
1328;SDS011;658;48.820;9.354;2022-09-25T18:20:33;2.60;;;2.40;;
1328;SDS011;658;48.820;9.354;2022-09-25T18:24:53;2.67;;;2.47;;
1328;SDS011;658;48.820;9.354;2022-09-25T18:28:56;2.93;;;2.73;;
1328;SDS011;658;48.820;9.354;2022-09-25T18:32:57;2.80;;;2.60;;
1328;SDS011;658;48.820;9.354;2022-09-25T18:36:57;2.77;;;2.57;;
1328;SDS011;658;48.820;9.354;2022-09-25T18:41:01;2.80;;;2.60;;
1328;SDS011;658;48.820;9.354;2022-09-25T18:45:02;3.03;;;2.73;;
1328;SDS011;658;48.820;9.354;2022-09-25T18:49:04;2.90;;;2.70;;
1328;SDS011;658;48.820;9.354;2022-09-25T18:53:05;3.13;;;2.93;;
1328;SDS011;658;48.820;9.354;2022-09-25T18:57:06;2.50;;;2.40;;
1328;SDS011;658;48.820;9.354;2022-09-25T19:01:07;3.07;;;2.87;;
1328;SDS011;658;48.820;9.354;2022-09-25T19:05:08;2.90;;;2.70;;
1328;SDS011;658;48.820;9.354;2022-09-25T19:09:08;3.30;;;3.10;;
1328;SDS011;658;48.820;9.354;2022-09-25T19:13:09;2.73;;;2.40;;
1328;SDS011;658;48.820;9.354;2022-09-25T19:17:10;2.90;;;2.70;;
1328;SDS011;658;48.820;9.354;2022-09-25T19:21:12;2.20;;;2.10;;
1328;SDS011;658;48.820;9.354;2022-09-25T19:25:14;3.07;;;2.87;;
1328;SDS011;658;48.820;9.354;2022-09-25T19:29:16;2.60;;;2.40;;
1328;SDS011;658;48.820;9.354;2022-09-25T19:33:17;2.63;;;2.43;;
1328;SDS011;658;48.820;9.354;2022-09-25T19:37:18;2.60;;;2.40;;
1328;SDS011;658;48.820;9.354;2022-09-25T19:41:24;2.90;;;2.70;;
1328;SDS011;658;48.820;9.354;2022-09-25T19:45:27;2.60;;;2.40;;
1328;SDS011;658;48.820;9.354;2022-09-25T19:49:28;2.40;;;2.30;;
1328;SDS011;658;48.820;9.354;2022-09-25T19:53:29;2.97;;;2.77;;
1328;SDS011;658;48.820;9.354;2022-09-25T19:57:30;2.70;;;2.50;;
1328;SDS011;658;48.820;9.354;2022-09-25T20:01:30;2.70;;;2.50;;
1328;SDS011;658;48.820;9.354;2022-09-25T20:05:35;2.70;;;2.50;;
1328;SDS011;658;48.820;9.354;2022-09-25T20:09:40;1.87;;;1.77;;
1328;SDS011;658;48.820;9.354;2022-09-25T20:13:41;2.90;;;2.70;;
1328;SDS011;658;48.820;9.354;2022-09-25T20:17:42;2.47;;;2.37;;
1328;SDS011;658;48.820;9.354;2022-09-25T20:21:43;2.80;;;2.60;;
1328;SDS011;658;48.820;9.354;2022-09-25T20:25:44;2.57;;;2.40;;
1328;SDS011;658;48.820;9.354;2022-09-25T20:29:44;4.90;;;2.50;;
1328;SDS011;658;48.820;9.354;2022-09-25T20:33:45;3.20;;;2.90;;
1328;SDS011;658;48.820;9.354;2022-09-25T20:37:46;2.90;;;2.60;;
1328;SDS011;658;48.820;9.354;2022-09-25T20:41:48;2.30;;;2.20;;
1328;SDS011;658;48.820;9.354;2022-09-25T20:45:55;3.00;;;2.73;;
1328;SDS011;658;48.820;9.354;2022-09-25T20:49:57;3.27;;;2.10;;
1328;SDS011;658;48.820;9.354;2022-09-25T20:53:59;2.67;;;2.47;;
1328;SDS011;658;48.820;9.354;2022-09-25T20:58:01;2.73;;;2.20;;
1328;SDS011;658;48.820;9.354;2022-09-25T21:02:02;2.40;;;2.17;;
1328;SDS011;658;48.820;9.354;2022-09-25T21:06:05;2.37;;;2.17;;
1328;SDS011;658;48.820;9.354;2022-09-25T21:10:07;2.90;;;2.70;;
1328;SDS011;658;48.820;9.354;2022-09-25T21:14:09;2.50;;;2.37;;
1328;SDS011;658;48.820;9.354;2022-09-25T21:18:14;2.50;;;2.30;;
1328;SDS011;658;48.820;9.354;2022-09-25T21:22:15;3.17;;;2.97;;
1328;SDS011;658;48.820;9.354;2022-09-25T21:26:16;2.80;;;2.50;;
1328;SDS011;658;48.820;9.354;2022-09-25T21:30:17;2.57;;;2.23;;
1328;SDS011;658;48.820;9.354;2022-09-25T21:34:18;2.23;;;2.03;;
1328;SDS011;658;48.820;9.354;2022-09-25T21:38:18;2.03;;;1.93;;
1328;SDS011;658;48.820;9.354;2022-09-25T21:42:19;2.47;;;2.37;;
1328;SDS011;658;48.820;9.354;2022-09-25T21:46:21;2.63;;;2.23;;
1328;SDS011;658;48.820;9.354;2022-09-25T21:50:22;2.37;;;2.27;;
1328;SDS011;658;48.820;9.354;2022-09-25T21:54:22;2.57;;;2.37;;
1328;SDS011;658;48.820;9.354;2022-09-25T21:58:23;2.27;;;2.13;;
1328;SDS011;658;48.820;9.354;2022-09-25T22:02:24;2.90;;;2.40;;
1328;SDS011;658;48.820;9.354;2022-09-25T22:06:31;2.70;;;2.50;;
1328;SDS011;658;48.820;9.354;2022-09-25T22:10:36;3.10;;;2.40;;
1328;SDS011;658;48.820;9.354;2022-09-25T22:14:37;2.70;;;2.50;;
1328;SDS011;658;48.820;9.354;2022-09-25T22:18:39;3.00;;;2.80;;
1328;SDS011;658;48.820;9.354;2022-09-25T22:22:42;2.87;;;2.77;;
1328;SDS011;658;48.820;9.354;2022-09-25T22:26:43;2.40;;;2.20;;
1328;SDS011;658;48.820;9.354;2022-09-25T22:30:45;2.73;;;2.53;;
1328;SDS011;658;48.820;9.354;2022-09-25T22:34:46;2.50;;;2.40;;
1328;SDS011;658;48.820;9.354;2022-09-25T22:38:47;2.50;;;2.40;;
1328;SDS011;658;48.820;9.354;2022-09-25T22:42:47;2.30;;;2.20;;
1328;SDS011;658;48.820;9.354;2022-09-25T22:46:48;2.70;;;2.50;;
1328;SDS011;658;48.820;9.354;2022-09-25T22:50:53;2.30;;;2.20;;
1328;SDS011;658;48.820;9.354;2022-09-25T22:54:57;2.30;;;2.10;;
1328;SDS011;658;48.820;9.354;2022-09-25T22:59:02;2.40;;;2.27;;
1328;SDS011;658;48.820;9.354;2022-09-25T23:03:05;2.43;;;2.33;;
1328;SDS011;658;48.820;9.354;2022-09-25T23:07:05;2.77;;;2.57;;
1328;SDS011;658;48.820;9.354;2022-09-25T23:11:06;2.80;;;2.60;;
1328;SDS011;658;48.820;9.354;2022-09-25T23:15:07;2.63;;;2.23;;
1328;SDS011;658;48.820;9.354;2022-09-25T23:19:08;2.57;;;2.43;;
1328;SDS011;658;48.820;9.354;2022-09-25T23:23:09;2.40;;;2.20;;
1328;SDS011;658;48.820;9.354;2022-09-25T23:27:09;2.37;;;2.17;;
1328;SDS011;658;48.820;9.354;2022-09-25T23:31:11;2.40;;;2.23;;
1328;SDS011;658;48.820;9.354;2022-09-25T23:35:14;2.43;;;2.23;;
1328;SDS011;658;48.820;9.354;2022-09-25T23:39:16;2.40;;;2.20;;
1328;SDS011;658;48.820;9.354;2022-09-25T23:43:18;2.90;;;2.70;;
1328;SDS011;658;48.820;9.354;2022-09-25T23:47:19;2.33;;;2.13;;
1328;SDS011;658;48.820;9.354;2022-09-25T23:51:20;2.50;;;2.40;;
1328;SDS011;658;48.820;9.354;2022-09-25T23:55:21;2.50;;;2.37;;
1328;SDS011;658;48.820;9.354;2022-09-25T23:59:22;2.27;;;2.07;;
